Terminal Aerodrome Forecast
Issued by NWS

Home | Current Version | Previous Version | Text Only | Print | Product List | Glossary On
Versions: 1 2 3 4 5 6 7 8 9 10 11 12 13 14
471
FTUS42 KMLB 260554
TAFLEE
TAF
KLEE 260554Z 2606/2706 09003KT P6SM SKC
     FM260800 12002KT 5SM BR MIFG SCT020
     FM261300 11007KT P6SM FEW060=

USA.gov is the U.S. government's official web portal to all federal, state and local government web resources and services.